Time;durP1;ratioP1;P1;durP2;ratioP2;P2;SDS_P1;SDS_P2;PMS_P1;PMS_P2;Temp;Humidity;BMP_temperature;BMP_pressure;BME280_temperature;BME280_humidity;BME280_pressure;Samples;Min_cycle;Max_cycle;Signal;HPM_P1;HPM_P2
2021/11/27 00:00:38;;;;;;;32.47;25.63;;;;;;;4.45;59.78;95409.13;8220995;28;20536;-88
2021/11/27 00:04:41;;;;;;;30.93;24.53;;;;;;;4.83;58.60;95430.78;8220374;28;20238;-87
2021/11/27 00:08:44;;;;;;;29.67;23.10;;;;;;;4.66;59.78;95424.97;8219767;28;20715;-87
2021/11/27 00:12:50;;;;;;;27.87;22.67;;;;;;;4.68;59.40;95420.56;8219548;28;20250;-86
2021/11/27 00:16:53;;;;;;;27.93;22.97;;;;;;;4.68;59.64;95412.88;8234145;28;20415;-87
2021/11/27 00:20:59;;;;;;;28.60;23.13;;;;;;;5.12;58.26;95421.25;8251555;28;20261;-87
2021/11/27 00:25:03;;;;;;;27.87;21.63;;;;;;;4.94;58.99;95401.91;8251015;28;20230;-85
2021/11/27 00:29:08;;;;;;;28.53;22.33;;;;;;;4.89;58.73;95390.19;8250531;28;20244;-87
2021/11/27 00:33:12;;;;;;;30.30;23.60;;;;;;;4.72;59.36;95402.41;8251049;28;20537;-87
2021/11/27 00:37:15;;;;;;;27.10;22.37;;;;;;;4.68;59.44;95396.66;8265616;28;20253;-87
2021/11/27 00:41:19;;;;;;;27.87;22.53;;;;;;;4.86;58.95;95392.13;8251449;28;20553;-87
2021/11/27 00:45:25;;;;;;;28.07;22.20;;;;;;;4.61;60.36;95385.16;8250912;28;20241;-87
2021/11/27 00:49:29;;;;;;;24.43;20.60;;;;;;;4.65;59.74;95382.28;8249841;28;20314;-87
2021/11/27 00:53:32;;;;;;;26.47;20.70;;;;;;;4.37;60.32;95380.59;8249729;28;20233;-88
2021/11/27 00:57:35;;;;;;;26.60;21.23;;;;;;;4.66;59.62;95373.69;8250954;28;20230;-87
2021/11/27 01:01:40;;;;;;;24.83;20.60;;;;;;;4.45;60.04;95370.69;8238960;28;20230;-87
2021/11/27 01:05:44;;;;;;;29.43;22.37;;;;;;;4.34;60.71;95370.53;8222662;28;20248;-89
2021/11/27 01:09:48;;;;;;;28.03;21.47;;;;;;;4.58;59.70;95369.94;8224990;28;20238;-88
2021/11/27 01:13:57;;;;;;;27.83;21.43;;;;;;;4.39;60.70;95357.44;8225178;28;20541;-89
2021/11/27 01:18:02;;;;;;;24.40;20.10;;;;;;;4.65;60.06;95354.09;8224876;28;20234;-87
2021/11/27 01:22:10;;;;;;;24.03;20.33;;;;;;;4.33;60.50;95353.50;8224945;28;20241;-88
2021/11/27 01:26:14;;;;;;;23.77;20.07;;;;;;;4.65;59.66;95356.66;8224707;28;20254;-89
2021/11/27 01:30:18;;;;;;;23.90;20.03;;;;;;;4.67;59.81;95346.31;8224753;28;20243;-87
2021/11/27 01:34:23;;;;;;;23.10;19.37;;;;;;;4.75;59.25;95344.06;8224316;28;20277;-89
2021/11/27 01:38:26;;;;;;;23.20;18.73;;;;;;;4.77;59.60;95341.41;8224698;28;20238;-86
2021/11/27 01:42:29;;;;;;;22.63;18.80;;;;;;;4.31;60.51;95345.09;8225932;28;20234;-89
2021/11/27 01:46:33;;;;;;;21.03;17.80;;;;;;;4.66;59.53;95336.94;8236564;28;20204;-88
2021/11/27 01:50:41;;;;;;;24.00;19.73;;;;;;;4.14;60.78;95325.63;8224855;28;20443;-88
2021/11/27 01:54:45;;;;;;;20.77;18.10;;;;;;;4.57;60.19;95323.00;8224184;28;20640;-87
2021/11/27 01:58:48;;;;;;;20.43;18.27;;;;;;;4.66;59.22;95321.56;8223596;28;20245;-88
2021/11/27 02:02:53;;;;;;;21.47;17.10;;;;;;;4.47;59.51;95309.09;8244507;28;20242;-89
2021/11/27 02:06:58;;;;;;;20.20;17.37;;;;;;;4.57;58.99;95317.03;8255214;28;20301;-88
2021/11/27 02:11:01;;;;;;;21.87;17.60;;;;;;;4.55;60.17;95309.44;8254550;28;20438;-86
2021/11/27 02:15:06;;;;;;;19.53;16.43;;;;;;;4.51;59.42;95292.59;8246048;28;20233;-88
2021/11/27 02:19:10;;;;;;;19.07;17.07;;;;;;;4.81;58.66;95289.00;8254802;28;20249;-89
2021/11/27 02:23:14;;;;;;;19.07;16.57;;;;;;;4.79;58.46;95285.72;8254583;28;20234;-88
2021/11/27 02:27:19;;;;;;;18.00;16.10;;;;;;;4.54;59.54;95274.47;8253246;28;20238;-86
2021/11/27 02:31:24;;;;;;;17.23;15.40;;;;;;;4.78;58.73;95272.09;8254613;28;20257;-87
2021/11/27 02:35:27;;;;;;;16.53;14.63;;;;;;;5.13;58.05;95274.09;8254609;28;20230;-87
2021/11/27 02:39:33;;;;;;;18.80;15.70;;;;;;;5.17;57.82;95267.84;8253933;28;20425;-86
2021/11/27 02:43:36;;;;;;;16.87;15.07;;;;;;;5.12;57.39;95259.63;8254042;28;20400;-85
2021/11/27 02:47:40;;;;;;;15.87;14.17;;;;;;;5.36;57.00;95264.06;8254028;28;20431;-86
2021/11/27 02:51:45;;;;;;;16.40;14.10;;;;;;;5.22;57.38;95268.38;8253047;28;20571;-86
2021/11/27 02:55:49;;;;;;;14.97;13.37;;;;;;;5.56;56.47;95265.28;8253825;28;20234;-85
2021/11/27 02:59:53;;;;;;;15.27;13.57;;;;;;;4.84;58.60;95269.13;8253755;28;20234;-85
2021/11/27 03:03:56;;;;;;;14.47;12.97;;;;;;;5.04;57.79;95252.44;8253528;28;20249;-85
2021/11/27 03:07:59;;;;;;;14.57;13.07;;;;;;;5.21;57.69;95261.59;8253279;28;20246;-85
2021/11/27 03:12:05;;;;;;;14.20;12.80;;;;;;;5.13;57.61;95260.47;8253393;28;20256;-85
2021/11/27 03:16:09;;;;;;;14.70;13.20;;;;;;;4.95;57.87;95259.91;8220750;28;20513;-86
2021/11/27 03:20:13;;;;;;;15.27;13.70;;;;;;;5.25;58.03;95263.06;8219741;28;20238;-85
2021/11/27 03:24:16;;;;;;;15.07;13.33;;;;;;;5.25;57.18;95265.63;8220319;28;20237;-85
2021/11/27 03:28:22;;;;;;;14.53;13.13;;;;;;;5.14;57.36;95264.66;8218833;28;20350;-84
2021/11/27 03:32:25;;;;;;;13.47;12.07;;;;;;;4.80;58.95;95274.56;8219045;28;20235;-85
2021/11/27 03:36:28;;;;;;;13.07;11.77;;;;;;;5.18;57.63;95266.94;8220225;28;20242;-85
2021/11/27 03:40:33;;;;;;;13.27;11.97;;;;;;;5.31;57.57;95268.69;8219827;28;20231;-85
2021/11/27 03:44:38;;;;;;;13.80;12.40;;;;;;;5.20;57.63;95264.28;8218488;28;20445;-84
2021/11/27 03:48:45;;;;;;;12.47;11.27;;;;;;;5.48;57.08;95265.81;8219358;28;20242;-85
2021/11/27 03:52:48;;;;;;;13.23;11.87;;;;;;;5.43;56.73;95266.13;8219447;28;20242;-85
2021/11/27 03:56:52;;;;;;;11.43;10.33;;;;;;;5.68;56.23;95270.41;8219467;28;20313;-85
2021/11/27 04:00:59;;;;;;;11.73;10.63;;;;;;;5.88;55.49;95273.38;8219478;28;20245;-85
2021/11/27 04:05:04;;;;;;;12.67;11.43;;;;;;;5.42;56.70;95266.22;8218693;28;20250;-84
2021/11/27 04:09:09;;;;;;;11.77;10.43;;;;;;;5.78;56.00;95267.22;8218745;28;20262;-84
2021/11/27 04:13:13;;;;;;;11.80;10.60;;;;;;;5.48;56.29;95264.09;8218676;28;20249;-84
2021/11/27 04:17:18;;;;;;;11.83;10.63;;;;;;;5.54;56.57;95255.16;8220835;28;20306;-84
2021/11/27 04:21:21;;;;;;;11.50;10.40;;;;;;;5.46;56.73;95250.53;8220829;28;20246;-83
2021/11/27 04:25:25;;;;;;;11.27;10.17;;;;;;;5.27;57.46;95266.34;8242557;28;20238;-84
2021/11/27 04:29:28;;;;;;;10.83;9.67;;;;;;;5.39;57.07;95271.56;8250416;28;20548;-83
2021/11/27 04:33:33;;;;;;;12.07;10.40;;;;;;;5.46;56.96;95255.66;8250209;28;20245;-84
2021/11/27 04:37:36;;;;;;;11.13;10.03;;;;;;;4.83;58.39;95253.84;8250123;28;20234;-85
2021/11/27 04:41:40;;;;;;;10.70;9.60;;;;;;;5.00;58.30;95252.75;8250367;28;20265;-86
2021/11/27 04:45:43;;;;;;;10.63;9.63;;;;;;;5.29;57.40;95246.53;8249183;28;20245;-86
2021/11/27 04:49:48;;;;;;;10.93;9.80;;;;;;;5.56;56.82;95260.16;8265325;28;20371;-86
2021/11/27 04:53:51;;;;;;;10.70;9.60;;;;;;;5.68;56.32;95269.59;8265008;28;20309;-86
2021/11/27 04:57:54;;;;;;;11.03;9.83;;;;;;;5.03;57.88;95258.50;8250088;28;20241;-85
2021/11/27 05:01:58;;;;;;;11.60;10.40;;;;;;;5.62;56.50;95254.63;8249850;28;20242;-86
2021/11/27 05:06:03;;;;;;;10.30;9.30;;;;;;;5.40;57.40;95253.47;8248716;28;20238;-85
2021/11/27 05:10:07;;;;;;;10.20;9.23;;;;;;;5.30;57.41;95249.91;8248942;28;20240;-85
2021/11/27 05:14:11;;;;;;;10.77;9.77;;;;;;;5.42;57.11;95254.19;8249546;28;20238;-85
2021/11/27 05:18:14;;;;;;;12.17;9.73;;;;;;;5.41;57.46;95262.84;8249503;28;20240;-86
2021/11/27 05:22:19;;;;;;;10.20;9.20;;;;;;;5.77;56.15;95265.56;8249361;28;20301;-86
2021/11/27 05:26:22;;;;;;;10.43;9.43;;;;;;;5.31;57.45;95266.13;8249775;28;20428;-85
2021/11/27 05:30:27;;;;;;;10.40;9.40;;;;;;;5.30;57.77;95265.31;8249942;28;20236;-86
2021/11/27 05:34:36;;;;;;;10.60;9.60;;;;;;;5.19;57.46;95258.31;8249307;28;20237;-87
2021/11/27 05:38:41;;;;;;;10.10;8.77;;;;;;;5.59;56.82;95258.19;8249323;28;20234;-85
2021/11/27 05:42:44;;;;;;;11.97;8.70;;;;;;;5.33;57.01;95256.56;8249274;28;20234;-85
2021/11/27 05:46:47;;;;;;;11.00;9.97;;;;;;;5.59;56.52;95250.50;8249446;28;20537;-86
2021/11/27 05:50:50;;;;;;;9.30;8.40;;;;;;;5.65;56.44;95251.84;8248919;28;20238;-86
2021/11/27 05:54:55;;;;;;;8.63;7.73;;;;;;;5.75;56.01;95252.88;8223089;28;20545;-86
2021/11/27 05:58:58;;;;;;;9.13;8.23;;;;;;;5.70;56.15;95247.22;8238383;28;20235;-85
2021/11/27 06:03:02;;;;;;;9.10;8.20;;;;;;;5.93;55.27;95260.22;8250399;28;20231;-86
2021/11/27 06:07:05;;;;;;;9.77;8.77;;;;;;;5.75;56.04;95255.44;8237106;28;20226;-86
2021/11/27 06:11:13;;;;;;;10.43;9.43;;;;;;;5.99;55.32;95265.78;8168103;28;20236;-90
2021/11/27 06:15:16;;;;;;;12.50;11.20;;;;;;;6.02;55.73;95267.34;8190086;28;20236;-86
2021/11/27 06:19:19;;;;;;;9.93;8.93;;;;;;;5.51;56.70;95269.94;8190115;28;20263;-86
2021/11/27 06:23:22;;;;;;;9.87;8.87;;;;;;;5.44;58.01;95280.59;8190263;28;20545;-85
2021/11/27 06:27:27;;;;;;;9.83;8.83;;;;;;;5.60;57.79;95290.66;8208549;28;20243;-84
2021/11/27 06:31:30;;;;;;;9.23;8.33;;;;;;;5.42;59.46;95297.84;8189282;28;20231;-85
2021/11/27 06:35:33;;;;;;;10.30;9.37;;;;;;;5.19;60.81;95291.66;8203539;28;20424;-86
2021/11/27 06:39:37;;;;;;;10.60;9.50;;;;;;;5.31;60.86;95284.88;8203022;28;20270;-88
2021/11/27 06:43:42;;;;;;;11.20;10.10;;;;;;;4.77;61.98;95296.06;8191795;28;20303;-85
2021/11/27 06:47:45;;;;;;;10.03;9.07;;;;;;;5.47;61.17;95300.13;8214674;28;20242;-85
2021/11/27 06:51:48;;;;;;;9.83;8.83;;;;;;;5.39;61.21;95308.31;8193126;28;20246;-85
2021/11/27 06:55:52;;;;;;;10.57;9.43;;;;;;;5.38;61.35;95309.22;8165034;28;20240;-86
2021/11/27 06:59:56;;;;;;;9.93;8.80;;;;;;;5.63;60.10;95305.84;8172122;28;20297;-87
2021/11/27 07:04:01;;;;;;;12.20;10.27;;;;;;;5.23;61.45;95308.50;8167618;28;20239;-87
2021/11/27 07:08:07;;;;;;;10.67;9.57;;;;;;;5.27;62.25;95309.97;8197465;28;20250;-86
2021/11/27 07:12:10;;;;;;;9.83;8.90;;;;;;;5.48;61.24;95317.97;8227890;28;20246;-85
2021/11/27 07:16:15;;;;;;;9.40;8.47;;;;;;;5.23;62.09;95317.94;8220416;28;20561;-85
2021/11/27 07:20:18;;;;;;;9.77;8.80;;;;;;;5.49;60.90;95334.19;8220808;28;20649;-86
2021/11/27 07:24:21;;;;;;;9.07;8.17;;;;;;;5.70;60.62;95331.94;8247039;28;20238;-86
2021/11/27 07:28:24;;;;;;;9.30;8.40;;;;;;;5.28;61.58;95341.56;8283297;28;20245;-87
2021/11/27 07:32:29;;;;;;;8.37;7.57;;;;;;;5.34;61.75;95343.72;8252114;28;20558;-86
2021/11/27 07:36:32;;;;;;;9.40;8.40;;;;;;;5.40;61.74;95345.06;8252654;28;20402;-89
2021/11/27 07:40:38;;;;;;;9.47;8.57;;;;;;;5.02;62.60;95350.94;8252401;28;20238;-86
2021/11/27 07:44:42;;;;;;;9.20;8.30;;;;;;;5.20;63.06;95342.06;8250730;28;20238;-84
2021/11/27 07:48:46;;;;;;;10.03;9.03;;;;;;;5.53;61.97;95360.50;8251595;28;20240;-85
2021/11/27 07:52:49;;;;;;;11.00;9.30;;;;;;;5.12;63.03;95358.84;8251696;28;20552;-87
2021/11/27 07:56:53;;;;;;;10.23;9.17;;;;;;;5.46;61.98;95357.50;8251955;28;20533;-87
2021/11/27 08:00:56;;;;;;;10.33;9.30;;;;;;;4.97;63.81;95356.38;8247017;28;20233;-87
2021/11/27 08:05:00;;;;;;;10.47;9.47;;;;;;;5.29;62.75;95362.00;8267855;28;20442;-87
2021/11/27 08:09:04;;;;;;;12.47;11.23;;;;;;;4.90;64.37;95365.38;8269287;28;20230;-87
2021/11/27 08:13:07;;;;;;;13.17;11.77;;;;;;;5.55;61.84;95359.47;8264971;28;20238;-87
2021/11/27 08:17:10;;;;;;;18.67;16.37;;;;;;;5.33;62.83;95359.22;8250570;28;20249;-86
2021/11/27 08:21:15;;;;;;;12.30;11.10;;;;;;;5.36;62.74;95359.03;8233324;28;20238;-86
2021/11/27 08:25:24;;;;;;;9.27;8.37;;;;;;;5.10;64.12;95379.47;8251013;28;20252;-86
2021/11/27 08:29:27;;;;;;;9.43;8.50;;;;;;;5.05;64.07;95394.34;8250917;28;20535;-87
2021/11/27 08:33:30;;;;;;;9.40;8.40;;;;;;;5.55;62.61;95394.59;8250770;28;20237;-86
2021/11/27 08:37:35;;;;;;;10.17;8.27;;;;;;;5.76;62.14;95406.00;8250396;28;20226;-85
2021/11/27 08:41:39;;;;;;;7.90;7.10;;;;;;;5.48;63.12;95405.25;8249719;28;20533;-86
2021/11/27 08:45:44;;;;;;;11.57;6.80;;;;;;;5.48;62.94;95406.97;8250258;28;20238;-86
2021/11/27 08:49:48;;;;;;;11.03;6.27;;;;;;;5.82;61.85;95399.66;8249138;28;20237;-85
2021/11/27 08:53:53;;;;;;;8.67;7.77;;;;;;;5.90;62.34;95409.41;8245644;28;20245;-85
2021/11/27 08:57:57;;;;;;;7.50;6.80;;;;;;;6.12;61.35;95394.25;8232941;28;20242;-85
2021/11/27 09:02:00;;;;;;;7.57;6.43;;;;;;;5.85;62.40;95399.44;8235922;28;20239;-86
2021/11/27 09:06:03;;;;;;;9.07;6.80;;;;;;;5.97;61.38;95408.13;8246993;28;20226;-85
2021/11/27 09:10:10;;;;;;;8.90;7.10;;;;;;;6.60;60.24;95398.69;8219372;28;20246;-86
2021/11/27 09:14:13;;;;;;;7.73;6.40;;;;;;;6.79;59.62;95418.81;8238601;28;20238;-87
2021/11/27 09:18:16;;;;;;;8.23;6.80;;;;;;;6.53;59.96;95398.31;8250073;28;20280;-86
2021/11/27 09:22:20;;;;;;;7.47;6.43;;;;;;;6.73;59.72;95416.69;8249712;28;20242;-87
2021/11/27 09:26:24;;;;;;;8.20;6.73;;;;;;;6.90;59.04;95420.66;8258856;28;20249;-86
2021/11/27 09:30:30;;;;;;;8.47;6.80;;;;;;;6.94;59.21;95430.59;8259744;28;20540;-88
2021/11/27 09:34:35;;;;;;;8.07;6.57;;;;;;;7.18;58.50;95424.66;8257601;28;20430;-86
2021/11/27 09:38:39;;;;;;;6.57;5.67;;;;;;;6.84;59.50;95432.19;8253523;28;20238;-85
2021/11/27 09:42:45;;;;;;;6.83;6.07;;;;;;;7.03;59.34;95437.69;8255416;28;20238;-85
2021/11/27 09:46:50;;;;;;;9.50;5.93;;;;;;;7.04;60.00;95436.75;8255125;28;20354;-85
2021/11/27 09:50:54;;;;;;;6.63;5.83;;;;;;;7.07;59.78;95440.88;8255052;28;20434;-87
2021/11/27 09:54:58;;;;;;;6.23;5.60;;;;;;;7.40;58.92;95436.81;8254807;28;20249;-86
2021/11/27 09:59:03;;;;;;;7.70;5.73;;;;;;;7.55;58.11;95440.03;8254935;28;20280;-86
2021/11/27 10:03:09;;;;;;;5.83;5.23;;;;;;;8.10;56.78;95435.16;8254429;28;20346;-87
2021/11/27 10:07:13;;;;;;;5.87;5.27;;;;;;;8.49;56.47;95440.84;8254575;28;20249;-86
2021/11/27 10:11:17;;;;;;;5.50;5.00;;;;;;;8.26;56.37;95445.13;8236856;28;20241;-86
2021/11/27 10:15:22;;;;;;;5.90;5.23;;;;;;;8.23;56.80;95439.28;8253288;28;20245;-86
2021/11/27 10:19:27;;;;;;;5.00;4.60;;;;;;;7.90;57.14;95442.63;8252054;28;20234;-88
2021/11/27 10:23:33;;;;;;;5.00;4.60;;;;;;;7.82;57.28;95445.75;8221666;28;20298;-87
2021/11/27 10:27:39;;;;;;;5.07;4.57;;;;;;;8.02;57.25;95448.63;8222096;28;20238;-87
2021/11/27 10:31:44;;;;;;;5.87;4.77;;;;;;;8.18;57.69;95461.19;8205170;28;20235;-86
2021/11/27 10:35:56;;;;;;;5.03;4.53;;;;;;;8.14;56.85;95457.19;8221905;28;20444;-88
2021/11/27 10:40:02;;;;;;;6.27;3.80;;;;;;;8.14;56.77;95460.59;8221617;28;20242;-88
2021/11/27 10:44:08;;;;;;;5.40;4.20;;;;;;;7.97;56.96;95455.88;8221664;28;20297;-86
2021/11/27 10:48:19;;;;;;;5.07;4.17;;;;;;;8.15;57.25;95459.66;8221309;28;20437;-87
2021/11/27 10:52:23;;;;;;;4.53;4.07;;;;;;;8.02;57.08;95464.09;8221840;28;20242;-87
2021/11/27 10:56:43;;;;;;;4.47;4.03;;;;;;;8.05;56.79;95465.59;8221941;28;20241;-89
2021/11/27 11:00:48;;;;;;;4.70;4.13;;;;;;;8.01;57.09;95460.69;8220114;28;20238;-84
2021/11/27 11:05:03;;;;;;;4.53;4.13;;;;;;;8.45;57.29;95449.75;8220834;28;20238;-85
2021/11/27 11:09:06;;;;;;;4.80;4.40;;;;;;;8.30;56.62;95444.81;8220119;28;20243;-86
2021/11/27 11:13:10;;;;;;;4.43;4.03;;;;;;;8.17;56.61;95433.78;8233443;28;20234;-87
2021/11/27 11:17:13;;;;;;;4.67;3.57;;;;;;;7.95;56.05;95432.78;8252702;28;20265;-86
2021/11/27 11:21:20;;;;;;;4.77;3.90;;;;;;;8.32;56.19;95424.88;8251514;28;20241;-90
2021/11/27 11:25:23;;;;;;;3.97;3.67;;;;;;;8.65;55.01;95425.03;8253149;28;20246;-87
2021/11/27 11:29:44;;;;;;;4.30;3.90;;;;;;;8.83;54.08;95427.94;8252749;28;20241;-84
2021/11/27 11:33:49;;;;;;;3.40;3.10;;;;;;;8.88;53.81;95431.81;8252169;28;20251;-84
2021/11/27 11:37:54;;;;;;;4.13;3.50;;;;;;;8.71;54.26;95437.44;8251957;28;20237;-85
2021/11/27 11:41:57;;;;;;;3.63;3.17;;;;;;;8.78;54.67;95434.28;8251967;28;20540;-85
2021/11/27 11:46:01;;;;;;;3.60;3.30;;;;;;;8.78;54.45;95436.03;8251656;28;20579;-84
2021/11/27 11:50:06;;;;;;;4.67;3.60;;;;;;;8.77;52.90;95429.22;8242823;28;20234;-86
2021/11/27 11:54:11;;;;;;;4.83;3.00;;;;;;;9.31;52.16;95425.84;8251640;28;20250;-85
2021/11/27 11:58:29;;;;;;;3.90;3.50;;;;;;;9.02;51.88;95419.56;8253375;28;20528;-85
2021/11/27 12:02:32;;;;;;;3.10;2.80;;;;;;;8.95;52.55;95448.47;8251691;28;20234;-85
2021/11/27 12:06:38;;;;;;;3.70;3.30;;;;;;;9.29;51.75;95437.22;8251659;28;20242;-82
2021/11/27 12:10:44;;;;;;;19.23;3.43;;;;;;;9.23;60.91;95453.22;8250622;28;20242;-85
2021/11/27 12:15:08;;;;;;;3.90;2.97;;;;;;;9.68;51.97;95458.25;8251004;28;20248;-84
2021/11/27 12:19:12;;;;;;;3.40;2.67;;;;;;;10.66;52.79;95463.09;8218260;28;20330;-85
2021/11/27 12:23:42;;;;;;;3.57;2.70;;;;;;;11.42;50.71;95465.22;8219310;28;20242;-83
2021/11/27 12:28:21;;;;;;;3.67;2.87;;;;;;;10.24;49.45;95465.69;8218788;28;20429;-81
2021/11/27 12:32:37;;;;;;;3.47;2.57;;;;;;;9.64;50.06;95480.09;8218619;28;20395;-82
2021/11/27 12:36:46;;;;;;;2.90;2.30;;;;;;;9.16;51.06;95481.28;8218691;28;20239;-82
2021/11/27 12:40:49;;;;;;;3.03;2.40;;;;;;;9.25;51.07;95488.28;8218585;28;20235;-82
2021/11/27 12:44:53;;;;;;;2.50;2.20;;;;;;;9.26;51.09;95477.03;8227889;28;20230;-83
2021/11/27 12:49:02;;;;;;;2.43;2.00;;;;;;;9.07;51.27;95482.00;8237870;28;20238;-84
2021/11/27 12:53:10;;;;;;;2.17;1.87;;;;;;;9.06;51.40;95482.94;8232831;28;20230;-82
2021/11/27 12:57:16;;;;;;;2.97;2.60;;;;;;;9.15;51.38;95474.47;8232837;28;20231;-84
2021/11/27 13:01:27;;;;;;;3.77;2.70;;;;;;;9.16;51.25;95478.72;8232485;28;20316;-82
2021/11/27 13:05:34;;;;;;;3.50;2.90;;;;;;;9.07;51.24;95482.81;8240417;28;20254;-82
2021/11/27 13:09:37;;;;;;;3.50;3.00;;;;;;;9.17;51.23;95477.75;8236939;28;20234;-80
2021/11/27 13:13:42;;;;;;;4.60;3.73;;;;;;;9.06;51.32;95472.59;8240229;28;20431;-82
2021/11/27 13:17:45;;;;;;;6.60;3.63;;;;;;;9.04;51.37;95477.88;8237642;28;20273;-84
2021/11/27 13:21:52;;;;;;;7.73;2.80;;;;;;;8.88;52.28;95478.25;8237039;28;20460;-84
2021/11/27 13:25:56;;;;;;;5.13;3.27;;;;;;;9.03;51.83;95471.09;8226117;28;20238;-84
2021/11/27 13:29:59;;;;;;;5.80;3.40;;;;;;;9.48;51.29;95485.66;8235762;28;20420;-83
2021/11/27 13:34:05;;;;;;;3.30;2.57;;;;;;;9.06;51.81;95488.09;8239610;28;20423;-83
2021/11/27 13:38:10;;;;;;;7.50;4.20;;;;;;;9.13;52.30;95495.25;8269484;28;20229;-83
2021/11/27 13:42:16;;;;;;;17.47;10.57;;;;;;;8.83;53.43;95507.94;8271967;28;20229;-84
2021/11/27 13:46:19;;;;;;;5.27;4.47;;;;;;;8.77;53.68;95516.97;8271488;28;20293;-83
2021/11/27 13:50:22;;;;;;;6.80;5.33;;;;;;;8.60;54.66;95534.56;8273738;28;20548;-82
2021/11/27 13:54:31;;;;;;;5.40;4.53;;;;;;;8.74;54.61;95519.81;8271642;28;20505;-84
2021/11/27 13:58:34;;;;;;;4.47;3.97;;;;;;;8.38;55.37;95527.56;8266785;28;20230;-84
2021/11/27 14:02:42;;;;;;;3.67;3.03;;;;;;;8.41;55.27;95527.38;8271505;28;20233;-83
2021/11/27 14:06:56;;;;;;;3.83;3.23;;;;;;;8.49;55.85;95537.13;8273272;28;20468;-83
2021/11/27 14:11:04;;;;;;;3.60;2.50;;;;;;;8.47;56.78;95536.38;8257594;28;20230;-83
2021/11/27 14:15:11;;;;;;;6.20;4.50;;;;;;;8.49;57.23;95544.84;8261739;28;20564;-83
2021/11/27 14:19:20;;;;;;;3.80;2.67;;;;;;;8.55;56.47;95552.13;8268641;28;20268;-84
2021/11/27 14:23:24;;;;;;;5.80;4.90;;;;;;;8.55;56.97;95551.31;8268725;28;20267;-82
2021/11/27 14:27:30;;;;;;;4.53;3.50;;;;;;;8.64;57.16;95554.94;8273007;28;20237;-84
2021/11/27 14:31:35;;;;;;;5.77;4.43;;;;;;;8.57;57.38;95533.97;8274256;28;20237;-84
2021/11/27 14:35:38;;;;;;;4.50;3.73;;;;;;;8.52;57.16;95547.19;8269491;28;20309;-84
2021/11/27 14:39:41;;;;;;;6.53;5.33;;;;;;;8.48;56.92;95558.69;8271244;28;20424;-86
2021/11/27 14:43:57;;;;;;;8.97;6.93;;;;;;;8.53;57.23;95576.38;8270901;28;20230;-85
2021/11/27 14:48:00;;;;;;;11.87;8.90;;;;;;;8.44;57.99;95588.22;8271444;28;20245;-84
2021/11/27 14:52:10;;;;;;;6.13;5.33;;;;;;;8.16;57.46;95584.22;8267646;28;20238;-85
2021/11/27 14:56:13;;;;;;;4.87;4.37;;;;;;;7.90;58.17;95568.91;8256813;28;20245;-85
2021/11/27 15:00:19;;;;;;;5.50;4.87;;;;;;;7.85;58.88;95576.13;8263487;28;20241;-85
2021/11/27 15:04:22;;;;;;;4.87;4.47;;;;;;;8.03;58.02;95585.13;8272708;28;20234;-85
2021/11/27 15:08:26;;;;;;;5.60;5.10;;;;;;;8.06;58.11;95594.38;8274622;28;20238;-85
2021/11/27 15:12:30;;;;;;;5.50;4.90;;;;;;;8.07;58.06;95600.34;8252816;28;20229;-84
2021/11/27 15:16:35;;;;;;;5.27;4.77;;;;;;;8.05;58.54;95600.44;8252636;28;20234;-85
2021/11/27 15:20:40;;;;;;;7.00;5.77;;;;;;;7.72;58.82;95590.81;8252388;28;20238;-85
2021/11/27 15:24:47;;;;;;;6.60;5.90;;;;;;;8.09;58.72;95611.38;8252172;28;20575;-84
2021/11/27 15:28:50;;;;;;;6.53;5.70;;;;;;;8.07;59.16;95619.22;8251196;28;20242;-83
2021/11/27 15:32:54;;;;;;;5.60;5.00;;;;;;;7.98;59.53;95620.72;8252570;28;20242;-83
2021/11/27 15:36:58;;;;;;;5.00;3.20;;;;;;;7.76;58.51;95634.28;8252216;28;20234;-83
2021/11/27 15:41:01;;;;;;;4.87;2.70;;;;;;;7.47;59.08;95627.78;8253145;28;20236;-83
2021/11/27 15:45:06;;;;;;;3.87;2.93;;;;;;;7.28;59.65;95626.44;8227111;28;20286;-83
2021/11/27 15:49:11;;;;;;;2.20;2.00;;;;;;;7.64;58.07;95642.88;8220728;28;20234;-84
2021/11/27 15:53:14;;;;;;;2.77;2.57;;;;;;;7.45;58.14;95653.63;8220419;28;20245;-85
2021/11/27 15:57:17;;;;;;;10.03;8.47;;;;;;;7.64;57.57;95651.41;8220340;28;20430;-85
2021/11/27 16:01:20;;;;;;;18.80;16.13;;;;;;;7.51;57.51;95671.22;8219175;28;20245;-85
2021/11/27 16:05:25;;;;;;;8.40;7.23;;;;;;;7.66;56.87;95671.94;8220768;28;20239;-87
2021/11/27 16:09:29;;;;;;;5.90;5.30;;;;;;;7.51;57.11;95666.06;8220160;28;20231;-88
2021/11/27 16:13:33;;;;;;;2.20;1.80;;;;;;;7.53;57.39;95686.56;8219946;28;20241;-86
2021/11/27 16:17:36;;;;;;;1.33;1.23;;;;;;;7.49;57.04;95704.00;8219251;28;20541;-87
2021/11/27 16:21:42;;;;;;;1.30;1.20;;;;;;;7.41;56.85;95708.84;8219689;28;20245;-87
2021/11/27 16:25:46;;;;;;;1.40;1.30;;;;;;;7.55;57.02;95705.31;8219064;28;20235;-86
2021/11/27 16:29:49;;;;;;;1.30;1.20;;;;;;;7.56;57.01;95679.47;8219603;28;20245;-89
2021/11/27 16:34:12;;;;;;;1.40;1.10;;;;;;;7.37;57.33;95682.47;8243617;28;20393;-84
2021/11/27 16:38:17;;;;;;;1.83;1.73;;;;;;;7.41;57.74;95683.91;8250429;28;20242;-85
2021/11/27 16:42:20;;;;;;;3.00;2.37;;;;;;;7.41;57.66;95690.81;8250728;28;20440;-84
2021/11/27 16:46:23;;;;;;;2.83;2.63;;;;;;;7.39;57.50;95698.63;8250399;28;20262;-84
2021/11/27 16:50:28;;;;;;;14.13;12.83;;;;;;;7.40;57.86;95712.31;8250583;28;20229;-84
2021/11/27 16:54:33;;;;;;;12.77;11.47;;;;;;;7.41;57.71;95712.22;8250607;28;20241;-85
2021/11/27 16:58:36;;;;;;;3.17;2.67;;;;;;;7.34;57.71;95717.91;8252665;28;20238;-85
2021/11/27 17:02:40;;;;;;;6.60;5.80;;;;;;;7.45;57.77;95730.88;8258633;28;20234;-84
2021/11/27 17:06:43;;;;;;;14.57;13.07;;;;;;;7.34;58.07;95730.78;8265402;28;20238;-84
2021/11/27 17:10:49;;;;;;;5.00;4.50;;;;;;;7.43;58.01;95745.63;8264151;28;20230;-84
2021/11/27 17:14:52;;;;;;;4.30;3.83;;;;;;;7.29;58.42;95753.41;8263533;28;20403;-87
2021/11/27 17:18:58;;;;;;;3.10;2.73;;;;;;;7.27;58.30;95743.22;8265687;28;20233;-91
2021/11/27 17:23:02;;;;;;;1.97;1.77;;;;;;;7.30;57.79;95737.88;8266582;28;20225;-89
2021/11/27 17:27:07;;;;;;;2.27;1.93;;;;;;;7.41;57.81;95750.03;8250054;28;20228;-89
2021/11/27 17:31:10;;;;;;;9.40;6.10;;;;;;;7.40;57.86;95759.50;8237856;28;20438;-88
2021/11/27 17:35:13;;;;;;;5.53;4.50;;;;;;;7.33;57.99;95770.31;8254008;28;20229;-88
2021/11/27 17:39:17;;;;;;;2.60;2.37;;;;;;;7.19;58.37;95784.09;8245951;28;20255;-89
2021/11/27 17:43:22;;;;;;;3.40;2.40;;;;;;;7.26;58.20;95787.13;8219726;28;20294;-90
2021/11/27 17:47:26;;;;;;;2.20;2.10;;;;;;;7.11;58.18;95807.78;8246646;28;20297;-88
2021/11/27 17:51:29;;;;;;;3.07;2.77;;;;;;;7.14;58.33;95814.47;8255474;28;20241;-88
2021/11/27 17:55:32;;;;;;;2.40;2.20;;;;;;;7.00;58.47;95802.50;8254915;28;20245;-88
2021/11/27 17:59:36;;;;;;;3.23;2.93;;;;;;;7.01;58.21;95811.88;8253874;28;20353;-87
2021/11/27 18:03:40;;;;;;;4.93;4.43;;;;;;;7.28;57.58;95826.44;8253660;28;20233;-83
2021/11/27 18:07:43;;;;;;;5.47;4.93;;;;;;;7.01;58.24;95817.03;8253258;28;20404;-86
2021/11/27 18:11:47;;;;;;;7.77;6.97;;;;;;;7.03;58.10;95843.47;8267568;28;20284;-84
2021/11/27 18:15:52;;;;;;;4.90;4.40;;;;;;;6.99;58.62;95824.00;8252489;28;20253;-87
2021/11/27 18:19:56;;;;;;;4.93;3.70;;;;;;;7.13;57.63;95825.69;8250401;28;20222;-86
2021/11/27 18:24:03;;;;;;;3.50;3.20;;;;;;;7.09;57.95;95830.22;8251865;28;20405;-84
2021/11/27 18:28:06;;;;;;;6.27;4.17;;;;;;;7.11;57.67;95823.22;8252065;28;20234;-81
2021/11/27 18:32:19;;;;;;;2.70;2.50;;;;;;;7.13;57.17;95831.66;8252375;28;20237;-83
2021/11/27 18:36:21;;;;;;;3.80;3.00;;;;;;;7.09;57.76;95845.66;8230515;28;20242;-86
2021/11/27 18:40:24;;;;;;;3.10;2.80;;;;;;;6.91;58.04;95851.97;8237126;28;20334;-85
2021/11/27 18:44:28;;;;;;;3.30;3.00;;;;;;;6.98;57.78;95856.63;8236433;28;20230;-86
2021/11/27 18:48:33;;;;;;;5.20;4.50;;;;;;;6.99;57.51;95863.44;8236764;28;20226;-85
2021/11/27 18:52:36;;;;;;;5.67;4.97;;;;;;;6.98;57.47;95864.34;8234736;28;20234;-85
2021/11/27 18:56:44;;;;;;;4.83;4.43;;;;;;;7.00;56.95;95870.22;8233345;28;20237;-85
2021/11/27 19:00:47;;;;;;;4.20;3.80;;;;;;;6.89;57.37;95875.22;8234382;28;20230;-85
2021/11/27 19:04:53;;;;;;;4.80;4.10;;;;;;;6.71;57.47;95884.91;8235432;28;20242;-85
2021/11/27 19:08:58;;;;;;;4.53;4.10;;;;;;;6.89;56.71;95877.78;8235432;28;20234;-86
2021/11/27 19:13:01;;;;;;;5.47;4.80;;;;;;;6.85;56.71;95894.34;8231296;28;20242;-86
2021/11/27 19:17:07;;;;;;;16.07;5.23;;;;;;;8.53;75.60;95897.13;8250830;28;20237;-85